sensor_id;sensor_type;location;lat;lon;timestamp;P1;durP1;ratioP1;P2;durP2;ratioP2
16892;SDS011;8563;52.242;9.098;2023-10-08T00:01:19;1.73;;;1.53;;
16892;SDS011;8563;52.242;9.098;2023-10-08T00:03:52;1.40;;;1.30;;
16892;SDS011;8563;52.242;9.098;2023-10-08T00:06:28;0.60;;;0.60;;
16892;SDS011;8563;52.242;9.098;2023-10-08T00:09:00;1.00;;;0.35;;
16892;SDS011;8563;52.242;9.098;2023-10-08T00:11:38;0.30;;;0.20;;
16892;SDS011;8563;52.242;9.098;2023-10-08T00:14:11;1.33;;;0.30;;
16892;SDS011;8563;52.242;9.098;2023-10-08T00:16:51;0.30;;;0.27;;
16892;SDS011;8563;52.242;9.098;2023-10-08T00:19:23;0.20;;;0.20;;
16892;SDS011;8563;52.242;9.098;2023-10-08T00:22:03;0.20;;;0.20;;
16892;SDS011;8563;52.242;9.098;2023-10-08T00:24:40;0.33;;;0.27;;
16892;SDS011;8563;52.242;9.098;2023-10-08T00:27:14;0.30;;;0.20;;
16892;SDS011;8563;52.242;9.098;2023-10-08T00:29:48;0.67;;;0.20;;
16892;SDS011;8563;52.242;9.098;2023-10-08T00:32:21;0.20;;;0.20;;
16892;SDS011;8563;52.242;9.098;2023-10-08T00:34:53;0.37;;;0.20;;
16892;SDS011;8563;52.242;9.098;2023-10-08T00:37:26;0.30;;;0.20;;
16892;SDS011;8563;52.242;9.098;2023-10-08T00:39:59;0.20;;;0.20;;
16892;SDS011;8563;52.242;9.098;2023-10-08T00:42:36;0.27;;;0.23;;
16892;SDS011;8563;52.242;9.098;2023-10-08T00:45:15;0.77;;;0.30;;
16892;SDS011;8563;52.242;9.098;2023-10-08T00:47:49;0.20;;;0.17;;
16892;SDS011;8563;52.242;9.098;2023-10-08T00:50:25;0.20;;;0.20;;
16892;SDS011;8563;52.242;9.098;2023-10-08T00:53:12;0.20;;;0.20;;
16892;SDS011;8563;52.242;9.098;2023-10-08T00:55:51;0.20;;;0.20;;
16892;SDS011;8563;52.242;9.098;2023-10-08T00:58:32;0.47;;;0.20;;
16892;SDS011;8563;52.242;9.098;2023-10-08T01:01:04;0.30;;;0.20;;
16892;SDS011;8563;52.242;9.098;2023-10-08T01:03:40;0.20;;;0.10;;
16892;SDS011;8563;52.242;9.098;2023-10-08T01:06:15;0.23;;;0.20;;
16892;SDS011;8563;52.242;9.098;2023-10-08T01:08:50;0.30;;;0.20;;
16892;SDS011;8563;52.242;9.098;2023-10-08T01:11:24;0.30;;;0.20;;
16892;SDS011;8563;52.242;9.098;2023-10-08T01:14:05;0.30;;;0.20;;
16892;SDS011;8563;52.242;9.098;2023-10-08T01:16:39;0.40;;;0.20;;
16892;SDS011;8563;52.242;9.098;2023-10-08T01:19:19;0.20;;;0.10;;
16892;SDS011;8563;52.242;9.098;2023-10-08T01:21:52;0.20;;;0.10;;
16892;SDS011;8563;52.242;9.098;2023-10-08T01:24:26;0.20;;;0.10;;
16892;SDS011;8563;52.242;9.098;2023-10-08T01:27:00;0.63;;;0.30;;
16892;SDS011;8563;52.242;9.098;2023-10-08T01:29:36;0.37;;;0.20;;
16892;SDS011;8563;52.242;9.098;2023-10-08T01:32:08;1.03;;;0.20;;
16892;SDS011;8563;52.242;9.098;2023-10-08T01:34:41;1.57;;;0.43;;
16892;SDS011;8563;52.242;9.098;2023-10-08T01:37:16;0.90;;;0.50;;
16892;SDS011;8563;52.242;9.098;2023-10-08T01:39:50;1.40;;;0.50;;
16892;SDS011;8563;52.242;9.098;2023-10-08T01:42:23;2.97;;;0.80;;
16892;SDS011;8563;52.242;9.098;2023-10-08T01:44:58;4.37;;;0.87;;
16892;SDS011;8563;52.242;9.098;2023-10-08T01:47:31;2.47;;;0.83;;
16892;SDS011;8563;52.242;9.098;2023-10-08T01:50:04;4.37;;;0.80;;
16892;SDS011;8563;52.242;9.098;2023-10-08T01:52:51;2.77;;;0.80;;
16892;SDS011;8563;52.242;9.098;2023-10-08T01:55:25;3.43;;;0.67;;
16892;SDS011;8563;52.242;9.098;2023-10-08T01:58:00;3.73;;;0.80;;
16892;SDS011;8563;52.242;9.098;2023-10-08T02:00:34;3.57;;;1.00;;
16892;SDS011;8563;52.242;9.098;2023-10-08T02:03:06;5.53;;;1.17;;
16892;SDS011;8563;52.242;9.098;2023-10-08T02:05:40;3.23;;;0.90;;
16892;SDS011;8563;52.242;9.098;2023-10-08T02:08:12;2.13;;;0.80;;
16892;SDS011;8563;52.242;9.098;2023-10-08T02:10:48;3.43;;;0.70;;
16892;SDS011;8563;52.242;9.098;2023-10-08T02:13:20;2.37;;;0.80;;
16892;SDS011;8563;52.242;9.098;2023-10-08T02:15:53;2.80;;;0.70;;
16892;SDS011;8563;52.242;9.098;2023-10-08T02:18:25;4.03;;;1.00;;
16892;SDS011;8563;52.242;9.098;2023-10-08T02:20:59;2.43;;;0.80;;
16892;SDS011;8563;52.242;9.098;2023-10-08T02:23:33;3.60;;;1.03;;
16892;SDS011;8563;52.242;9.098;2023-10-08T02:26:07;2.67;;;0.80;;
16892;SDS011;8563;52.242;9.098;2023-10-08T02:28:40;3.07;;;0.80;;
16892;SDS011;8563;52.242;9.098;2023-10-08T02:31:12;5.40;;;0.90;;
16892;SDS011;8563;52.242;9.098;2023-10-08T02:33:45;3.33;;;1.03;;
16892;SDS011;8563;52.242;9.098;2023-10-08T02:36:17;2.40;;;0.77;;
16892;SDS011;8563;52.242;9.098;2023-10-08T02:38:50;3.53;;;0.90;;
16892;SDS011;8563;52.242;9.098;2023-10-08T02:41:23;3.30;;;0.73;;
16892;SDS011;8563;52.242;9.098;2023-10-08T02:43:56;2.57;;;1.10;;
16892;SDS011;8563;52.242;9.098;2023-10-08T02:46:29;3.10;;;0.90;;
16892;SDS011;8563;52.242;9.098;2023-10-08T02:49:03;4.10;;;0.80;;
16892;SDS011;8563;52.242;9.098;2023-10-08T02:51:37;4.50;;;1.00;;
16892;SDS011;8563;52.242;9.098;2023-10-08T02:54:09;3.13;;;0.83;;
16892;SDS011;8563;52.242;9.098;2023-10-08T02:56:49;2.73;;;0.90;;
16892;SDS011;8563;52.242;9.098;2023-10-08T02:59:22;4.63;;;1.10;;
16892;SDS011;8563;52.242;9.098;2023-10-08T03:01:55;3.07;;;1.07;;
16892;SDS011;8563;52.242;9.098;2023-10-08T03:04:27;2.00;;;0.80;;
16892;SDS011;8563;52.242;9.098;2023-10-08T03:07:00;1.93;;;0.67;;
16892;SDS011;8563;52.242;9.098;2023-10-08T03:09:32;3.60;;;0.97;;
16892;SDS011;8563;52.242;9.098;2023-10-08T03:12:07;2.03;;;1.00;;
16892;SDS011;8563;52.242;9.098;2023-10-08T03:14:40;3.07;;;1.17;;
16892;SDS011;8563;52.242;9.098;2023-10-08T03:17:20;1.40;;;0.70;;
16892;SDS011;8563;52.242;9.098;2023-10-08T03:19:52;3.20;;;1.07;;
16892;SDS011;8563;52.242;9.098;2023-10-08T03:22:32;3.57;;;0.83;;
16892;SDS011;8563;52.242;9.098;2023-10-08T03:25:04;2.93;;;0.60;;
16892;SDS011;8563;52.242;9.098;2023-10-08T03:27:47;2.27;;;0.80;;
16892;SDS011;8563;52.242;9.098;2023-10-08T03:30:20;1.53;;;0.60;;
16892;SDS011;8563;52.242;9.098;2023-10-08T03:32:57;2.87;;;0.90;;
16892;SDS011;8563;52.242;9.098;2023-10-08T03:35:31;3.23;;;0.90;;
16892;SDS011;8563;52.242;9.098;2023-10-08T03:38:07;1.77;;;0.60;;
16892;SDS011;8563;52.242;9.098;2023-10-08T03:40:51;2.53;;;0.80;;
16892;SDS011;8563;52.242;9.098;2023-10-08T03:43:29;2.97;;;0.90;;
16892;SDS011;8563;52.242;9.098;2023-10-08T03:46:13;2.30;;;0.80;;
16892;SDS011;8563;52.242;9.098;2023-10-08T03:48:46;2.67;;;0.90;;
16892;SDS011;8563;52.242;9.098;2023-10-08T03:51:21;4.77;;;0.90;;
16892;SDS011;8563;52.242;9.098;2023-10-08T03:53:57;2.40;;;0.70;;
16892;SDS011;8563;52.242;9.098;2023-10-08T03:56:30;1.63;;;0.60;;
16892;SDS011;8563;52.242;9.098;2023-10-08T03:59:04;1.77;;;0.77;;
16892;SDS011;8563;52.242;9.098;2023-10-08T04:01:43;2.90;;;0.67;;
16892;SDS011;8563;52.242;9.098;2023-10-08T04:04:15;1.83;;;0.70;;
16892;SDS011;8563;52.242;9.098;2023-10-08T04:06:48;2.87;;;0.90;;
16892;SDS011;8563;52.242;9.098;2023-10-08T04:09:21;2.17;;;0.60;;
16892;SDS011;8563;52.242;9.098;2023-10-08T04:11:55;2.03;;;0.63;;
16892;SDS011;8563;52.242;9.098;2023-10-08T04:14:36;3.50;;;1.10;;
16892;SDS011;8563;52.242;9.098;2023-10-08T04:17:10;2.73;;;0.70;;
16892;SDS011;8563;52.242;9.098;2023-10-08T04:19:42;4.17;;;1.17;;
16892;SDS011;8563;52.242;9.098;2023-10-08T04:22:15;2.73;;;0.60;;
16892;SDS011;8563;52.242;9.098;2023-10-08T04:24:49;2.63;;;0.70;;
16892;SDS011;8563;52.242;9.098;2023-10-08T04:27:21;1.93;;;0.73;;
16892;SDS011;8563;52.242;9.098;2023-10-08T04:29:59;4.97;;;0.70;;
16892;SDS011;8563;52.242;9.098;2023-10-08T04:32:32;2.43;;;0.83;;
16892;SDS011;8563;52.242;9.098;2023-10-08T04:35:05;2.77;;;0.70;;
16892;SDS011;8563;52.242;9.098;2023-10-08T04:37:45;1.70;;;0.70;;
16892;SDS011;8563;52.242;9.098;2023-10-08T04:40:22;3.50;;;1.03;;
16892;SDS011;8563;52.242;9.098;2023-10-08T04:42:56;2.40;;;0.73;;
16892;SDS011;8563;52.242;9.098;2023-10-08T04:45:34;2.27;;;1.00;;
16892;SDS011;8563;52.242;9.098;2023-10-08T04:48:08;2.53;;;0.73;;
16892;SDS011;8563;52.242;9.098;2023-10-08T04:50:41;3.50;;;0.97;;
16892;SDS011;8563;52.242;9.098;2023-10-08T04:53:14;2.37;;;0.70;;
16892;SDS011;8563;52.242;9.098;2023-10-08T04:55:47;2.27;;;0.77;;
16892;SDS011;8563;52.242;9.098;2023-10-08T04:58:20;3.90;;;0.93;;
16892;SDS011;8563;52.242;9.098;2023-10-08T05:01:05;3.87;;;0.70;;
16892;SDS011;8563;52.242;9.098;2023-10-08T05:03:51;2.57;;;0.80;;
16892;SDS011;8563;52.242;9.098;2023-10-08T05:06:40;2.63;;;0.80;;
16892;SDS011;8563;52.242;9.098;2023-10-08T05:09:31;1.63;;;0.60;;
16892;SDS011;8563;52.242;9.098;2023-10-08T05:12:19;1.93;;;0.60;;
16892;SDS011;8563;52.242;9.098;2023-10-08T05:15:05;2.30;;;0.80;;
16892;SDS011;8563;52.242;9.098;2023-10-08T05:17:53;1.93;;;1.00;;
16892;SDS011;8563;52.242;9.098;2023-10-08T05:20:39;2.53;;;0.70;;
16892;SDS011;8563;52.242;9.098;2023-10-08T05:23:28;2.53;;;0.70;;
16892;SDS011;8563;52.242;9.098;2023-10-08T05:26:18;1.73;;;0.80;;
16892;SDS011;8563;52.242;9.098;2023-10-08T05:29:01;4.47;;;0.83;;
16892;SDS011;8563;52.242;9.098;2023-10-08T05:31:53;2.43;;;1.13;;
16892;SDS011;8563;52.242;9.098;2023-10-08T05:34:52;1.87;;;0.60;;
16892;SDS011;8563;52.242;9.098;2023-10-08T05:37:45;1.63;;;0.80;;
16892;SDS011;8563;52.242;9.098;2023-10-08T05:40:22;1.80;;;0.80;;
16892;SDS011;8563;52.242;9.098;2023-10-08T05:43:24;2.30;;;0.70;;
16892;SDS011;8563;52.242;9.098;2023-10-08T05:46:19;4.13;;;0.80;;
16892;SDS011;8563;52.242;9.098;2023-10-08T05:49:05;3.33;;;0.70;;
16892;SDS011;8563;52.242;9.098;2023-10-08T05:51:58;3.70;;;0.90;;
16892;SDS011;8563;52.242;9.098;2023-10-08T05:54:55;1.80;;;0.73;;
16892;SDS011;8563;52.242;9.098;2023-10-08T05:57:48;3.67;;;0.90;;
16892;SDS011;8563;52.242;9.098;2023-10-08T06:00:22;2.53;;;0.90;;
16892;SDS011;8563;52.242;9.098;2023-10-08T06:03:16;1.83;;;0.90;;
16892;SDS011;8563;52.242;9.098;2023-10-08T06:06:06;2.13;;;0.70;;
16892;SDS011;8563;52.242;9.098;2023-10-08T06:08:57;1.40;;;0.60;;
16892;SDS011;8563;52.242;9.098;2023-10-08T06:11:48;1.60;;;0.80;;
16892;SDS011;8563;52.242;9.098;2023-10-08T06:14:38;2.13;;;0.80;;
16892;SDS011;8563;52.242;9.098;2023-10-08T06:17:37;2.70;;;0.80;;
16892;SDS011;8563;52.242;9.098;2023-10-08T06:20:34;3.30;;;0.90;;
16892;SDS011;8563;52.242;9.098;2023-10-08T06:23:10;2.03;;;0.87;;
16892;SDS011;8563;52.242;9.098;2023-10-08T06:25:45;1.67;;;0.87;;
16892;SDS011;8563;52.242;9.098;2023-10-08T06:28:25;2.27;;;0.90;;
16892;SDS011;8563;52.242;9.098;2023-10-08T06:30:57;3.13;;;1.13;;
16892;SDS011;8563;52.242;9.098;2023-10-08T06:33:30;3.27;;;1.00;;
16892;SDS011;8563;52.242;9.098;2023-10-08T06:36:03;2.83;;;1.20;;
16892;SDS011;8563;52.242;9.098;2023-10-08T06:38:43;3.37;;;1.00;;
16892;SDS011;8563;52.242;9.098;2023-10-08T06:41:20;3.30;;;1.00;;
16892;SDS011;8563;52.242;9.098;2023-10-08T06:43:59;1.73;;;1.03;;
16892;SDS011;8563;52.242;9.098;2023-10-08T06:46:33;2.90;;;0.90;;
16892;SDS011;8563;52.242;9.098;2023-10-08T06:49:06;3.57;;;0.80;;
16892;SDS011;8563;52.242;9.098;2023-10-08T06:51:42;4.20;;;1.20;;
16892;SDS011;8563;52.242;9.098;2023-10-08T06:54:14;3.00;;;1.10;;
16892;SDS011;8563;52.242;9.098;2023-10-08T06:56:49;1.40;;;0.87;;
16892;SDS011;8563;52.242;9.098;2023-10-08T06:59:23;2.60;;;1.00;;
16892;SDS011;8563;52.242;9.098;2023-10-08T07:02:01;2.37;;;1.13;;
16892;SDS011;8563;52.242;9.098;2023-10-08T07:04:38;2.13;;;1.10;;
16892;SDS011;8563;52.242;9.098;2023-10-08T07:07:11;3.37;;;1.20;;
16892;SDS011;8563;52.242;9.098;2023-10-08T07:09:49;4.47;;;1.10;;
16892;SDS011;8563;52.242;9.098;2023-10-08T07:12:28;2.80;;;1.30;;
16892;SDS011;8563;52.242;9.098;2023-10-08T07:15:04;1.83;;;1.20;;
16892;SDS011;8563;52.242;9.098;2023-10-08T07:17:42;2.27;;;1.37;;
16892;SDS011;8563;52.242;9.098;2023-10-08T07:20:14;2.37;;;1.30;;
16892;SDS011;8563;52.242;9.098;2023-10-08T07:22:52;3.63;;;1.77;;
16892;SDS011;8563;52.242;9.098;2023-10-08T07:25:25;6.27;;;1.60;;
16892;SDS011;8563;52.242;9.098;2023-10-08T07:28:08;4.53;;;1.80;;
16892;SDS011;8563;52.242;9.098;2023-10-08T07:30:42;3.90;;;1.50;;
16892;SDS011;8563;52.242;9.098;2023-10-08T07:33:15;3.37;;;1.67;;
16892;SDS011;8563;52.242;9.098;2023-10-08T07:35:55;2.20;;;1.40;;
16892;SDS011;8563;52.242;9.098;2023-10-08T07:38:42;3.93;;;1.60;;
16892;SDS011;8563;52.242;9.098;2023-10-08T07:41:14;5.17;;;1.63;;
16892;SDS011;8563;52.242;9.098;2023-10-08T07:43:49;3.43;;;1.70;;
16892;SDS011;8563;52.242;9.098;2023-10-08T07:46:25;3.97;;;1.63;;
16892;SDS011;8563;52.242;9.098;2023-10-08T07:48:58;2.27;;;1.40;;
16892;SDS011;8563;52.242;9.098;2023-10-08T07:51:30;2.77;;;1.40;;
16892;SDS011;8563;52.242;9.098;2023-10-08T07:54:04;1.87;;;1.40;;
16892;SDS011;8563;52.242;9.098;2023-10-08T07:56:40;2.70;;;1.70;;
16892;SDS011;8563;52.242;9.098;2023-10-08T07:59:14;4.33;;;1.77;;
16892;SDS011;8563;52.242;9.098;2023-10-08T08:01:46;2.60;;;1.67;;
16892;SDS011;8563;52.242;9.098;2023-10-08T08:04:19;2.50;;;1.53;;
16892;SDS011;8563;52.242;9.098;2023-10-08T08:06:53;3.33;;;1.50;;
16892;SDS011;8563;52.242;9.098;2023-10-08T08:09:25;2.87;;;1.70;;
16892;SDS011;8563;52.242;9.098;2023-10-08T08:12:00;3.17;;;1.77;;
16892;SDS011;8563;52.242;9.098;2023-10-08T08:14:39;3.27;;;1.77;;
16892;SDS011;8563;52.242;9.098;2023-10-08T08:17:12;3.47;;;1.70;;
16892;SDS011;8563;52.242;9.098;2023-10-08T08:19:47;3.53;;;1.53;;
16892;SDS011;8563;52.242;9.098;2023-10-08T08:22:21;4.17;;;1.67;;
16892;SDS011;8563;52.242;9.098;2023-10-08T08:25:01;2.17;;;1.37;;
16892;SDS011;8563;52.242;9.098;2023-10-08T08:27:45;3.47;;;1.50;;
16892;SDS011;8563;52.242;9.098;2023-10-08T08:30:20;3.10;;;1.50;;
16892;SDS011;8563;52.242;9.098;2023-10-08T08:32:56;2.70;;;1.57;;
16892;SDS011;8563;52.242;9.098;2023-10-08T08:35:30;4.47;;;1.70;;
16892;SDS011;8563;52.242;9.098;2023-10-08T08:38:03;3.23;;;1.57;;
16892;SDS011;8563;52.242;9.098;2023-10-08T08:40:36;2.80;;;1.37;;
16892;SDS011;8563;52.242;9.098;2023-10-08T08:43:10;3.10;;;1.60;;
16892;SDS011;8563;52.242;9.098;2023-10-08T08:45:44;5.05;;;1.48;;
16892;SDS011;8563;52.242;9.098;2023-10-08T08:48:19;5.00;;;1.52;;
16892;SDS011;8563;52.242;9.098;2023-10-08T08:50:52;3.47;;;1.50;;
16892;SDS011;8563;52.242;9.098;2023-10-08T08:53:25;3.93;;;1.10;;
16892;SDS011;8563;52.242;9.098;2023-10-08T08:55:58;3.00;;;1.10;;
16892;SDS011;8563;52.242;9.098;2023-10-08T08:58:31;3.47;;;1.50;;
16892;SDS011;8563;52.242;9.098;2023-10-08T09:01:06;2.00;;;1.07;;
16892;SDS011;8563;52.242;9.098;2023-10-08T09:03:43;3.00;;;1.37;;
16892;SDS011;8563;52.242;9.098;2023-10-08T09:06:18;3.13;;;1.40;;
16892;SDS011;8563;52.242;9.098;2023-10-08T09:08:50;4.70;;;1.43;;
16892;SDS011;8563;52.242;9.098;2023-10-08T09:11:25;2.53;;;1.00;;
16892;SDS011;8563;52.242;9.098;2023-10-08T09:14:00;3.50;;;1.17;;
16892;SDS011;8563;52.242;9.098;2023-10-08T09:16:35;2.53;;;1.10;;
16892;SDS011;8563;52.242;9.098;2023-10-08T09:19:08;2.70;;;1.00;;
16892;SDS011;8563;52.242;9.098;2023-10-08T09:21:59;2.47;;;1.17;;
16892;SDS011;8563;52.242;9.098;2023-10-08T09:24:34;3.57;;;1.40;;
16892;SDS011;8563;52.242;9.098;2023-10-08T09:27:08;2.40;;;1.03;;
16892;SDS011;8563;52.242;9.098;2023-10-08T09:29:44;2.00;;;1.00;;
16892;SDS011;8563;52.242;9.098;2023-10-08T09:32:19;5.00;;;1.27;;
16892;SDS011;8563;52.242;9.098;2023-10-08T09:34:54;2.77;;;0.93;;
16892;SDS011;8563;52.242;9.098;2023-10-08T09:37:28;2.93;;;1.00;;
16892;SDS011;8563;52.242;9.098;2023-10-08T09:40:00;1.90;;;0.93;;
16892;SDS011;8563;52.242;9.098;2023-10-08T09:42:40;2.07;;;1.10;;
16892;SDS011;8563;52.242;9.098;2023-10-08T09:45:14;3.63;;;1.10;;
16892;SDS011;8563;52.242;9.098;2023-10-08T09:47:49;3.90;;;1.00;;
16892;SDS011;8563;52.242;9.098;2023-10-08T09:50:25;4.07;;;1.17;;
16892;SDS011;8563;52.242;9.098;2023-10-08T09:53:00;4.10;;;1.20;;
16892;SDS011;8563;52.242;9.098;2023-10-08T09:55:34;2.55;;;1.00;;
16892;SDS011;8563;52.242;9.098;2023-10-08T09:58:07;4.33;;;1.20;;
16892;SDS011;8563;52.242;9.098;2023-10-08T10:00:43;2.55;;;0.98;;
16892;SDS011;8563;52.242;9.098;2023-10-08T10:03:20;4.27;;;1.27;;
16892;SDS011;8563;52.242;9.098;2023-10-08T10:05:54;3.73;;;1.00;;
16892;SDS011;8563;52.242;9.098;2023-10-08T10:08:30;4.30;;;1.27;;
16892;SDS011;8563;52.242;9.098;2023-10-08T10:11:06;4.53;;;1.30;;
16892;SDS011;8563;52.242;9.098;2023-10-08T10:13:40;2.13;;;1.05;;
16892;SDS011;8563;52.242;9.098;2023-10-08T10:16:17;4.80;;;1.55;;
16892;SDS011;8563;52.242;9.098;2023-10-08T10:18:51;2.72;;;0.90;;
16892;SDS011;8563;52.242;9.098;2023-10-08T10:21:29;5.55;;;1.30;;
16892;SDS011;8563;52.242;9.098;2023-10-08T10:24:03;4.10;;;0.90;;
16892;SDS011;8563;52.242;9.098;2023-10-08T10:26:36;3.80;;;1.10;;
16892;SDS011;8563;52.242;9.098;2023-10-08T10:29:20;2.58;;;1.17;;
16892;SDS011;8563;52.242;9.098;2023-10-08T10:31:53;2.50;;;1.20;;
16892;SDS011;8563;52.242;9.098;2023-10-08T10:34:28;2.20;;;0.82;;
16892;SDS011;8563;52.242;9.098;2023-10-08T10:37:04;4.97;;;1.05;;
16892;SDS011;8563;52.242;9.098;2023-10-08T10:39:40;2.63;;;0.85;;
16892;SDS011;8563;52.242;9.098;2023-10-08T10:42:13;2.90;;;1.10;;
16892;SDS011;8563;52.242;9.098;2023-10-08T10:44:52;5.35;;;1.40;;
16892;SDS011;8563;52.242;9.098;2023-10-08T10:47:25;3.92;;;1.10;;
16892;SDS011;8563;52.242;9.098;2023-10-08T10:49:59;3.53;;;1.10;;
16892;SDS011;8563;52.242;9.098;2023-10-08T10:52:57;2.97;;;1.05;;
16892;SDS011;8563;52.242;9.098;2023-10-08T10:55:39;3.83;;;0.90;;
16892;SDS011;8563;52.242;9.098;2023-10-08T10:58:18;3.53;;;1.15;;
16892;SDS011;8563;52.242;9.098;2023-10-08T11:00:54;2.80;;;1.08;;
16892;SDS011;8563;52.242;9.098;2023-10-08T11:03:31;1.38;;;0.80;;
16892;SDS011;8563;52.242;9.098;2023-10-08T11:06:06;2.63;;;0.90;;
16892;SDS011;8563;52.242;9.098;2023-10-08T11:08:45;3.38;;;1.00;;
16892;SDS011;8563;52.242;9.098;2023-10-08T11:11:18;2.70;;;0.90;;
16892;SDS011;8563;52.242;9.098;2023-10-08T11:13:54;2.35;;;0.80;;
16892;SDS011;8563;52.242;9.098;2023-10-08T11:16:31;4.07;;;1.13;;
16892;SDS011;8563;52.242;9.098;2023-10-08T11:19:07;3.10;;;0.95;;
16892;SDS011;8563;52.242;9.098;2023-10-08T11:21:50;4.28;;;1.00;;
16892;SDS011;8563;52.242;9.098;2023-10-08T11:24:27;3.50;;;1.33;;
16892;SDS011;8563;52.242;9.098;2023-10-08T11:27:00;2.17;;;1.00;;
16892;SDS011;8563;52.242;9.098;2023-10-08T11:29:46;3.63;;;0.93;;
16892;SDS011;8563;52.242;9.098;2023-10-08T11:32:24;3.25;;;0.90;;
16892;SDS011;8563;52.242;9.098;2023-10-08T11:34:57;2.10;;;0.85;;
16892;SDS011;8563;52.242;9.098;2023-10-08T11:37:32;3.50;;;1.00;;
16892;SDS011;8563;52.242;9.098;2023-10-08T11:40:05;3.60;;;1.08;;
16892;SDS011;8563;52.242;9.098;2023-10-08T11:42:46;2.80;;;1.10;;
16892;SDS011;8563;52.242;9.098;2023-10-08T11:45:21;3.53;;;0.77;;
16892;SDS011;8563;52.242;9.098;2023-10-08T11:47:57;4.03;;;0.93;;
16892;SDS011;8563;52.242;9.098;2023-10-08T11:50:33;2.97;;;0.93;;
16892;SDS011;8563;52.242;9.098;2023-10-08T11:53:07;3.83;;;1.20;;
16892;SDS011;8563;52.242;9.098;2023-10-08T11:55:41;3.15;;;1.00;;
16892;SDS011;8563;52.242;9.098;2023-10-08T11:58:15;3.17;;;1.35;;
16892;SDS011;8563;52.242;9.098;2023-10-08T12:00:50;3.40;;;1.52;;
16892;SDS011;8563;52.242;9.098;2023-10-08T12:03:23;2.83;;;0.95;;
16892;SDS011;8563;52.242;9.098;2023-10-08T12:05:56;3.97;;;1.33;;
16892;SDS011;8563;52.242;9.098;2023-10-08T12:08:31;3.22;;;1.10;;
16892;SDS011;8563;52.242;9.098;2023-10-08T12:11:09;4.13;;;1.30;;
16892;SDS011;8563;52.242;9.098;2023-10-08T12:13:43;2.65;;;1.00;;
16892;SDS011;8563;52.242;9.098;2023-10-08T12:16:15;2.95;;;1.10;;
16892;SDS011;8563;52.242;9.098;2023-10-08T12:18:53;3.53;;;1.35;;
16892;SDS011;8563;52.242;9.098;2023-10-08T12:21:29;5.20;;;1.52;;
16892;SDS011;8563;52.242;9.098;2023-10-08T12:24:03;2.03;;;1.13;;
16892;SDS011;8563;52.242;9.098;2023-10-08T12:26:35;3.05;;;1.00;;
16892;SDS011;8563;52.242;9.098;2023-10-08T12:29:12;2.83;;;1.02;;
16892;SDS011;8563;52.242;9.098;2023-10-08T12:31:45;3.58;;;1.20;;
16892;SDS011;8563;52.242;9.098;2023-10-08T12:34:18;4.15;;;1.02;;
16892;SDS011;8563;52.242;9.098;2023-10-08T12:36:53;3.00;;;1.00;;
16892;SDS011;8563;52.242;9.098;2023-10-08T12:39:26;3.92;;;0.98;;
16892;SDS011;8563;52.242;9.098;2023-10-08T12:42:00;4.47;;;1.27;;
16892;SDS011;8563;52.242;9.098;2023-10-08T12:44:35;5.40;;;1.38;;
16892;SDS011;8563;52.242;9.098;2023-10-08T12:47:07;3.67;;;1.05;;
16892;SDS011;8563;52.242;9.098;2023-10-08T12:49:43;2.58;;;1.70;;
16892;SDS011;8563;52.242;9.098;2023-10-08T12:52:17;2.92;;;1.15;;
16892;SDS011;8563;52.242;9.098;2023-10-08T12:54:52;3.13;;;0.98;;
16892;SDS011;8563;52.242;9.098;2023-10-08T12:57:26;2.75;;;1.20;;
16892;SDS011;8563;52.242;9.098;2023-10-08T13:00:03;4.25;;;1.27;;
16892;SDS011;8563;52.242;9.098;2023-10-08T13:02:35;1.90;;;1.00;;
16892;SDS011;8563;52.242;9.098;2023-10-08T13:05:12;4.30;;;1.10;;
16892;SDS011;8563;52.242;9.098;2023-10-08T13:07:46;2.42;;;0.90;;
16892;SDS011;8563;52.242;9.098;2023-10-08T13:10:20;2.45;;;1.17;;
16892;SDS011;8563;52.242;9.098;2023-10-08T13:12:52;3.95;;;1.33;;
16892;SDS011;8563;52.242;9.098;2023-10-08T13:15:25;4.95;;;1.08;;
16892;SDS011;8563;52.242;9.098;2023-10-08T13:17:57;2.13;;;0.95;;
16892;SDS011;8563;52.242;9.098;2023-10-08T13:20:33;3.15;;;1.00;;
16892;SDS011;8563;52.242;9.098;2023-10-08T13:23:06;2.05;;;1.15;;
16892;SDS011;8563;52.242;9.098;2023-10-08T13:25:41;2.42;;;0.90;;
16892;SDS011;8563;52.242;9.098;2023-10-08T13:28:14;2.83;;;0.93;;
16892;SDS011;8563;52.242;9.098;2023-10-08T13:30:48;3.45;;;1.10;;
16892;SDS011;8563;52.242;9.098;2023-10-08T13:33:22;3.08;;;1.10;;
16892;SDS011;8563;52.242;9.098;2023-10-08T13:35:55;2.47;;;0.85;;
16892;SDS011;8563;52.242;9.098;2023-10-08T13:38:27;2.75;;;1.20;;
16892;SDS011;8563;52.242;9.098;2023-10-08T13:41:01;2.38;;;1.02;;
16892;SDS011;8563;52.242;9.098;2023-10-08T13:43:33;1.50;;;0.95;;
16892;SDS011;8563;52.242;9.098;2023-10-08T13:46:07;2.92;;;1.15;;
16892;SDS011;8563;52.242;9.098;2023-10-08T13:48:45;2.67;;;1.10;;
16892;SDS011;8563;52.242;9.098;2023-10-08T13:51:19;4.45;;;1.20;;
16892;SDS011;8563;52.242;9.098;2023-10-08T13:53:55;3.40;;;1.02;;
16892;SDS011;8563;52.242;9.098;2023-10-08T13:56:32;2.90;;;0.90;;
16892;SDS011;8563;52.242;9.098;2023-10-08T13:59:08;3.30;;;1.08;;
16892;SDS011;8563;52.242;9.098;2023-10-08T14:01:44;1.63;;;0.90;;
16892;SDS011;8563;52.242;9.098;2023-10-08T14:04:18;2.25;;;0.82;;
16892;SDS011;8563;52.242;9.098;2023-10-08T14:06:50;3.93;;;1.30;;
16892;SDS011;8563;52.242;9.098;2023-10-08T14:09:24;3.08;;;0.95;;
16892;SDS011;8563;52.242;9.098;2023-10-08T14:12:09;3.17;;;0.90;;
16892;SDS011;8563;52.242;9.098;2023-10-08T14:14:41;3.42;;;1.05;;
16892;SDS011;8563;52.242;9.098;2023-10-08T14:17:16;3.10;;;0.97;;
16892;SDS011;8563;52.242;9.098;2023-10-08T14:20:09;3.37;;;1.00;;
16892;SDS011;8563;52.242;9.098;2023-10-08T14:22:44;3.50;;;1.07;;
16892;SDS011;8563;52.242;9.098;2023-10-08T14:25:18;2.10;;;1.07;;
16892;SDS011;8563;52.242;9.098;2023-10-08T14:27:55;2.00;;;1.00;;
16892;SDS011;8563;52.242;9.098;2023-10-08T14:30:34;2.57;;;0.90;;
16892;SDS011;8563;52.242;9.098;2023-10-08T14:33:11;3.40;;;1.00;;
16892;SDS011;8563;52.242;9.098;2023-10-08T14:35:54;2.50;;;1.00;;
16892;SDS011;8563;52.242;9.098;2023-10-08T14:38:44;2.30;;;0.97;;
16892;SDS011;8563;52.242;9.098;2023-10-08T14:41:34;4.70;;;1.10;;
16892;SDS011;8563;52.242;9.098;2023-10-08T14:44:25;1.80;;;0.87;;
16892;SDS011;8563;52.242;9.098;2023-10-08T14:46:57;4.13;;;1.10;;
16892;SDS011;8563;52.242;9.098;2023-10-08T14:49:30;3.23;;;0.90;;
16892;SDS011;8563;52.242;9.098;2023-10-08T14:52:02;2.50;;;0.90;;
16892;SDS011;8563;52.242;9.098;2023-10-08T14:54:35;3.27;;;0.97;;
16892;SDS011;8563;52.242;9.098;2023-10-08T14:57:08;2.93;;;1.00;;
16892;SDS011;8563;52.242;9.098;2023-10-08T14:59:44;3.00;;;1.20;;
16892;SDS011;8563;52.242;9.098;2023-10-08T15:02:16;2.57;;;0.90;;
16892;SDS011;8563;52.242;9.098;2023-10-08T15:04:49;4.63;;;1.23;;
16892;SDS011;8563;52.242;9.098;2023-10-08T15:07:21;2.67;;;1.10;;
16892;SDS011;8563;52.242;9.098;2023-10-08T15:09:53;3.87;;;1.30;;
16892;SDS011;8563;52.242;9.098;2023-10-08T15:12:27;3.63;;;1.00;;
16892;SDS011;8563;52.242;9.098;2023-10-08T15:15:07;2.70;;;1.07;;
16892;SDS011;8563;52.242;9.098;2023-10-08T15:17:44;4.30;;;1.00;;
16892;SDS011;8563;52.242;9.098;2023-10-08T15:20:19;3.53;;;1.30;;
16892;SDS011;8563;52.242;9.098;2023-10-08T15:22:53;4.10;;;1.67;;
16892;SDS011;8563;52.242;9.098;2023-10-08T15:25:26;2.33;;;1.10;;
16892;SDS011;8563;52.242;9.098;2023-10-08T15:27:59;9.13;;;6.90;;
16892;SDS011;8563;52.242;9.098;2023-10-08T15:30:33;10.57;;;7.57;;
16892;SDS011;8563;52.242;9.098;2023-10-08T15:33:05;9.83;;;5.13;;
16892;SDS011;8563;52.242;9.098;2023-10-08T15:35:38;4.00;;;2.53;;
16892;SDS011;8563;52.242;9.098;2023-10-08T15:38:11;5.17;;;2.47;;
16892;SDS011;8563;52.242;9.098;2023-10-08T15:40:43;3.97;;;1.63;;
16892;SDS011;8563;52.242;9.098;2023-10-08T15:43:16;5.63;;;1.53;;
16892;SDS011;8563;52.242;9.098;2023-10-08T15:45:50;3.47;;;2.00;;
16892;SDS011;8563;52.242;9.098;2023-10-08T15:48:22;4.47;;;1.17;;
16892;SDS011;8563;52.242;9.098;2023-10-08T15:50:56;3.27;;;1.40;;
16892;SDS011;8563;52.242;9.098;2023-10-08T15:53:28;3.73;;;1.10;;
16892;SDS011;8563;52.242;9.098;2023-10-08T15:56:01;2.70;;;1.17;;